Terminal Aerodrome Forecast
Issued by NWS

Home | Current Version | Previous Version | Text Only | Print | Product List | Glossary On
Versions: 1 2 3 4 5 6 7 8 9 10 11 12 13 14 15 16 17 18 19 20 21 22 23
591
FTUS42 KFFC 300533
TAFRYY
TAF
KRYY 300533Z 3006/3106 VRB03KT P6SM VCSH SCT060 BKN100
     FM301000 VRB03KT P6SM SCT025
     FM301400 28005KT P6SM SCT035
     FM301600 29008KT P6SM SCT050 PROB30 3020/3024 5SM -TSRA
      BKN035CB
     FM310000 24004KT P6SM SCT070 SCT250
      AMD NOT SKED TIL 301200=

USA.gov is the U.S. government's official web portal to all federal, state and local government web resources and services.